Time;durP1;ratioP1;P1;durP2;ratioP2;P2;SDS_P1;SDS_P2;PMS_P1;PMS_P2;Temp;Humidity;BMP_temperature;BMP_pressure;BME280_temperature;BME280_humidity;BME280_pressure;Samples;Min_cycle;Max_cycle;Signal;HPM_P1;HPM_P2
2022/05/16 00:00:02;;;;;;;;;;;24.70;39.30;;;;;;8297822;28;19918;-47
2022/05/16 00:04:03;;;;;;;;;;;24.70;39.30;;;;;;8297839;28;20402;-48
2022/05/16 00:08:04;;;;;;;;;;;24.80;39.40;;;;;;8297927;28;19924;-48
2022/05/16 00:12:05;;;;;;;;;;;24.70;39.30;;;;;;8297350;28;19922;-46
2022/05/16 00:16:05;;;;;;;;;;;24.70;39.40;;;;;;8297651;28;20354;-47
2022/05/16 00:20:07;;;;;;;;;;;24.70;39.40;;;;;;8307075;28;19913;-46
2022/05/16 00:24:07;;;;;;;;;;;24.70;39.40;;;;;;8307976;28;19925;-47
2022/05/16 00:28:08;;;;;;;;;;;24.70;39.90;;;;;;8308284;28;19918;-46
2022/05/16 00:32:09;;;;;;;;;;;24.70;39.40;;;;;;8308441;28;20294;-47
2022/05/16 00:36:10;;;;;;;;;;;24.70;39.40;;;;;;8307831;28;19926;-46
2022/05/16 00:40:11;;;;;;;;;;;24.60;39.50;;;;;;8308391;28;20022;-46
2022/05/16 00:44:12;;;;;;;;;;;24.60;39.50;;;;;;8307953;28;19996;-47
2022/05/16 00:48:12;;;;;;;;;;;24.60;39.40;;;;;;8307651;28;20302;-47
2022/05/16 00:52:13;;;;;;;;;;;24.60;39.50;;;;;;8308235;28;20032;-47
2022/05/16 00:56:14;;;;;;;;;;;24.60;39.50;;;;;;8307848;28;19922;-46
2022/05/16 01:00:14;;;;;;;;;;;24.60;40.00;;;;;;8307797;28;20340;-47
2022/05/16 01:08:53;;;;;;;;;;;24.60;39.50;;;;;;8270599;28;20271;-46
2022/05/16 01:12:54;;;;;;;;;;;24.60;39.50;;;;;;8288337;28;19925;-47
2022/05/16 01:16:55;;;;;;;;;;;24.60;39.50;;;;;;8307921;28;19917;-46
2022/05/16 01:21:06;;;;;;;;;;;24.60;39.60;;;;;;8307551;28;19924;-46
2022/05/16 01:25:12;;;;;;;;;;;24.60;39.60;;;;;;8307747;28;19959;-47
2022/05/16 01:29:12;;;;;;;;;;;24.60;39.60;;;;;;8305094;28;19921;-47
2022/05/16 01:33:17;;;;;;;;;;;24.60;39.60;;;;;;8301672;28;19929;-47
2022/05/16 01:37:18;;;;;;;;;;;24.60;39.60;;;;;;8302516;28;19920;-46
2022/05/16 01:41:19;;;;;;;;;;;24.60;39.60;;;;;;8301947;28;19957;-46
2022/05/16 01:45:20;;;;;;;;;;;24.60;39.60;;;;;;8301698;28;19918;-47
2022/05/16 01:49:20;;;;;;;;;;;24.60;39.70;;;;;;8301755;28;19918;-47
2022/05/16 01:53:21;;;;;;;;;;;24.60;39.70;;;;;;8301578;28;20390;-48
2022/05/16 01:57:21;;;;;;;;;;;24.60;39.70;;;;;;8301098;28;19952;-46
2022/05/16 02:01:22;;;;;;;;;;;24.50;39.60;;;;;;8301480;28;19937;-48
2022/05/16 02:05:22;;;;;;;;;;;24.50;39.70;;;;;;8301626;28;19917;-47
2022/05/16 02:09:23;;;;;;;;;;;24.50;39.70;;;;;;8300864;28;20367;-47
2022/05/16 02:13:23;;;;;;;;;;;24.50;39.70;;;;;;8300932;28;19926;-47
2022/05/16 02:17:24;;;;;;;;;;;24.50;39.70;;;;;;8301140;28;20264;-47
2022/05/16 02:25:45;;;;;;;;;;;24.50;40.30;;;;;;8306637;28;19925;-47
2022/05/16 02:29:45;;;;;;;;;;;24.50;39.80;;;;;;8300448;28;19924;-47
2022/05/16 02:33:46;;;;;;;;;;;24.50;39.80;;;;;;8299898;28;19927;-46
2022/05/16 02:37:47;;;;;;;;;;;24.50;39.80;;;;;;8300353;28;19921;-47
2022/05/16 02:41:47;;;;;;;;;;;24.50;39.90;;;;;;8299471;28;19943;-46
2022/05/16 02:45:48;;;;;;;;;;;24.50;39.80;;;;;;8300629;28;20359;-48
2022/05/16 02:49:49;;;;;;;;;;;24.40;39.80;;;;;;8300140;28;19933;-46
2022/05/16 02:53:49;;;;;;;;;;;24.40;39.80;;;;;;8299329;28;19929;-47
2022/05/16 02:57:50;;;;;;;;;;;24.40;39.80;;;;;;8299928;28;19928;-47
2022/05/16 03:01:50;;;;;;;;;;;24.40;40.40;;;;;;8299901;28;19922;-45
2022/05/16 03:05:51;;;;;;;;;;;24.40;39.90;;;;;;8299363;28;19917;-45
2022/05/16 03:09:51;;;;;;;;;;;24.40;39.80;;;;;;8299212;28;20485;-46
2022/05/16 03:13:51;;;;;;;;;;;24.30;39.80;;;;;;8297801;28;19922;-46
2022/05/16 03:17:52;;;;;;;;;;;24.40;39.90;;;;;;8274490;28;19924;-45
2022/05/16 03:21:52;;;;;;;;;;;24.40;39.90;;;;;;8299445;28;19960;-46
2022/05/16 03:25:53;;;;;;;;;;;24.30;39.80;;;;;;8298931;28;19924;-47
2022/05/16 03:29:55;;;;;;;;;;;24.30;39.90;;;;;;8298288;28;19913;-51
2022/05/16 03:33:55;;;;;;;;;;;24.30;39.90;;;;;;8298527;28;20390;-46
2022/05/16 03:37:56;;;;;;;;;;;24.30;39.90;;;;;;8298716;28;19913;-47
2022/05/16 03:41:57;;;;;;;;;;;24.30;39.90;;;;;;8298319;28;20004;-47
2022/05/16 03:45:57;;;;;;;;;;;24.30;39.90;;;;;;8298678;28;19925;-46
2022/05/16 03:49:57;;;;;;;;;;;24.30;39.90;;;;;;8298192;28;19918;-46
2022/05/16 03:53:58;;;;;;;;;;;24.30;39.90;;;;;;8297055;28;19922;-45
2022/05/16 03:57:58;;;;;;;;;;;24.30;39.90;;;;;;8298013;28;19914;-46
2022/05/16 04:01:59;;;;;;;;;;;24.30;40.00;;;;;;8298434;28;20004;-47
2022/05/16 04:05:59;;;;;;;;;;;24.30;40.00;;;;;;8278449;28;20375;-47
2022/05/16 04:10:00;;;;;;;;;;;24.30;40.00;;;;;;8275174;28;19926;-47
2022/05/16 04:14:01;;;;;;;;;;;24.30;39.90;;;;;;8297701;28;19925;-46
2022/05/16 04:18:01;;;;;;;;;;;24.30;40.00;;;;;;8297323;28;19917;-47
2022/05/16 04:22:02;;;;;;;;;;;24.30;40.00;;;;;;8297937;28;19913;-46
2022/05/16 04:26:02;;;;;;;;;;;24.30;40.00;;;;;;8297597;28;19917;-47
2022/05/16 04:30:03;;;;;;;;;;;24.20;39.90;;;;;;8297107;28;19921;-47
2022/05/16 04:34:09;;;;;;;;;;;24.20;40.50;;;;;;8297642;28;19929;-48
2022/05/16 04:38:09;;;;;;;;;;;24.20;40.00;;;;;;8297513;28;20330;-47
2022/05/16 04:46:29;;;;;;;;;;;24.20;40.00;;;;;;8297753;28;19932;-48
2022/05/16 04:50:33;;;;;;;;;;;24.20;40.00;;;;;;8297289;28;20338;-46
2022/05/16 04:54:34;;;;;;;;;;;24.20;40.00;;;;;;8296479;28;19947;-48
2022/05/16 04:58:35;;;;;;;;;;;24.20;40.00;;;;;;8296847;28;19914;-47
2022/05/16 05:02:35;;;;;;;;;;;24.10;40.00;;;;;;8297035;28;20024;-48
2022/05/16 05:06:36;;;;;;;;;;;24.20;40.00;;;;;;8300738;28;19918;-47
2022/05/16 05:14:55;;;;;;;;;;;24.20;40.00;;;;;;8302799;28;19929;-47
2022/05/16 05:18:55;;;;;;;;;;;24.10;40.00;;;;;;8302916;28;19918;-46
2022/05/16 05:22:56;;;;;;;;;;;24.10;40.00;;;;;;8302702;28;19914;-46
2022/05/16 05:26:57;;;;;;;;;;;24.20;40.10;;;;;;8302412;28;19917;-46
2022/05/16 05:30:57;;;;;;;;;;;24.20;40.00;;;;;;8302684;28;19918;-49
2022/05/16 05:34:58;;;;;;;;;;;24.20;40.00;;;;;;8301935;28;19929;-45
2022/05/16 05:38:58;;;;;;;;;;;24.20;40.00;;;;;;8301653;28;20087;-47
2022/05/16 05:43:02;;;;;;;;;;;24.20;40.00;;;;;;8301847;28;19914;-51
2022/05/16 05:47:03;;;;;;;;;;;24.20;40.00;;;;;;8302164;28;19993;-52
2022/05/16 05:51:03;;;;;;;;;;;24.10;39.90;;;;;;8301299;28;20330;-47
2022/05/16 05:55:04;;;;;;;;;;;24.20;40.00;;;;;;8301434;28;19932;-48
2022/05/16 05:59:05;;;;;;;;;;;24.20;40.00;;;;;;8301285;28;20367;-49
2022/05/16 06:03:05;;;;;;;;;;;24.20;40.00;;;;;;8301296;28;19927;-47
2022/05/16 06:07:07;;;;;;;;;;;24.20;40.00;;;;;;8300885;28;21324;-48
2022/05/16 06:11:08;;;;;;;;;;;24.20;40.00;;;;;;8300939;28;19923;-48
2022/05/16 06:15:09;;;;;;;;;;;24.20;40.00;;;;;;8299896;28;19926;-48
2022/05/16 06:19:10;;;;;;;;;;;24.20;40.00;;;;;;8300809;28;19913;-51
2022/05/16 06:23:10;;;;;;;;;;;24.20;40.00;;;;;;8300739;28;20011;-47
2022/05/16 06:27:11;;;;;;;;;;;24.20;40.00;;;;;;8300447;28;19918;-47
2022/05/16 06:31:11;;;;;;;;;;;24.20;40.00;;;;;;8300324;28;19917;-50
2022/05/16 06:35:12;;;;;;;;;;;24.20;40.00;;;;;;8300337;28;19925;-48
2022/05/16 06:39:12;;;;;;;;;;;24.20;40.00;;;;;;8299759;28;19924;-51
2022/05/16 06:43:14;;;;;;;;;;;24.20;40.00;;;;;;8300484;28;20374;-47
2022/05/16 06:47:14;;;;;;;;;;;24.20;40.00;;;;;;8299974;28;19925;-46
2022/05/16 06:51:15;;;;;;;;;;;24.20;40.00;;;;;;8299366;28;20004;-48
2022/05/16 06:55:15;;;;;;;;;;;24.20;40.00;;;;;;8299544;28;19925;-49
2022/05/16 06:59:18;;;;;;;;;;;24.20;40.00;;;;;;8299370;28;19953;-50
2022/05/16 07:03:19;;;;;;;;;;;24.20;40.00;;;;;;8299387;28;19948;-48
2022/05/16 07:07:19;;;;;;;;;;;24.20;40.00;;;;;;8299194;28;19921;-47
2022/05/16 07:11:20;;;;;;;;;;;24.20;40.00;;;;;;8298103;28;19922;-46
2022/05/16 07:15:20;;;;;;;;;;;24.20;40.00;;;;;;8298533;28;19961;-46
2022/05/16 07:19:21;;;;;;;;;;;24.20;40.00;;;;;;8298565;28;19920;-47
2022/05/16 07:23:21;;;;;;;;;;;24.30;40.00;;;;;;8299220;28;19917;-49
2022/05/16 07:31:41;;;;;;;;;;;24.30;40.00;;;;;;8304587;28;19927;-48
2022/05/16 07:35:41;;;;;;;;;;;24.20;40.00;;;;;;8298563;28;19922;-50
2022/05/16 07:39:42;;;;;;;;;;;24.20;40.00;;;;;;8297733;28;19918;-50
2022/05/16 07:43:42;;;;;;;;;;;24.20;40.00;;;;;;8298303;28;19913;-47
2022/05/16 07:47:43;;;;;;;;;;;24.30;40.00;;;;;;8298442;28;19917;-48
2022/05/16 07:51:43;;;;;;;;;;;24.30;40.00;;;;;;8297590;28;19924;-48
2022/05/16 07:55:54;;;;;;;;;;;24.30;39.90;;;;;;8298083;28;19932;-47
2022/05/16 07:59:55;;;;;;;;;;;24.30;40.00;;;;;;8297554;28;20000;-48
2022/05/16 08:03:55;;;;;;;;;;;24.30;39.90;;;;;;8297586;28;20394;-48
2022/05/16 08:12:21;;;;;;;;;;;24.30;40.00;;;;;;8298839;28;19972;-47
2022/05/16 08:16:22;;;;;;;;;;;24.40;40.00;;;;;;8297538;28;19964;-48
2022/05/16 08:20:23;;;;;;;;;;;24.30;39.90;;;;;;8297725;28;19968;-50
2022/05/16 08:24:23;;;;;;;;;;;24.40;40.00;;;;;;8297085;28;19917;-47
2022/05/16 08:28:24;;;;;;;;;;;24.40;40.00;;;;;;8297717;28;20293;-49
2022/05/16 08:32:25;;;;;;;;;;;24.40;40.00;;;;;;8297560;28;20389;-50
2022/05/16 08:40:50;;;;;;;;;;;24.40;40.00;;;;;;8307742;28;19920;-48
2022/05/16 08:45:00;;;;;;;;;;;24.40;39.90;;;;;;8303386;28;19922;-47
2022/05/16 08:49:07;;;;;;;;;;;24.50;40.00;;;;;;8304158;28;19964;-49
2022/05/16 08:53:07;;;;;;;;;;;24.40;39.90;;;;;;8303799;28;19940;-51
2022/05/16 08:57:11;;;;;;;;;;;24.50;39.90;;;;;;8302518;28;19917;-48
2022/05/16 09:01:13;;;;;;;;;;;24.50;39.90;;;;;;8303042;28;20008;-52
2022/05/16 09:05:21;;;;;;;;;;;24.50;39.90;;;;;;8303156;28;19944;-48
2022/05/16 09:09:25;;;;;;;;;;;24.60;40.00;;;;;;8302465;28;19920;-47
2022/05/16 09:13:26;;;;;;;;;;;24.60;39.90;;;;;;8303230;28;19967;-49
2022/05/16 09:17:26;;;;;;;;;;;24.60;39.90;;;;;;8302896;28;20276;-47
2022/05/16 09:21:32;;;;;;;;;;;24.60;39.90;;;;;;8302436;28;20008;-47
2022/05/16 09:25:38;;;;;;;;;;;24.60;40.40;;;;;;8302685;28;19918;-49
2022/05/16 09:29:42;;;;;;;;;;;24.60;39.90;;;;;;8302488;28;19957;-49
2022/05/16 09:33:47;;;;;;;;;;;24.60;39.90;;;;;;8302123;28;19928;-47
2022/05/16 09:37:48;;;;;;;;;;;24.70;39.90;;;;;;8302488;28;19917;-47
2022/05/16 09:41:48;;;;;;;;;;;24.70;40.00;;;;;;8301723;28;19964;-48
2022/05/16 09:45:51;;;;;;;;;;;24.70;40.00;;;;;;8301967;28;19918;-48
2022/05/16 09:50:04;;;;;;;;;;;24.70;39.90;;;;;;8301044;28;19917;-49
2022/05/16 09:54:13;;;;;;;;;;;24.80;40.00;;;;;;8301528;28;20440;-51
2022/05/16 09:58:16;;;;;;;;;;;24.70;39.90;;;;;;8301805;28;20015;-49
2022/05/16 10:02:22;;;;;;;;;;;24.80;39.90;;;;;;8301634;28;19996;-46
2022/05/16 10:06:27;;;;;;;;;;;24.80;40.00;;;;;;8299887;28;19924;-48
2022/05/16 10:10:33;;;;;;;;;;;24.80;39.90;;;;;;8301397;28;19961;-47
2022/05/16 10:14:33;;;;;;;;;;;24.80;39.90;;;;;;8301290;28;19928;-47
2022/05/16 10:19:03;;;;;;;;;;;24.80;39.90;;;;;;8300551;28;19918;-47
2022/05/16 10:23:06;;;;;;;;;;;24.90;39.90;;;;;;8296196;28;19917;-49
2022/05/16 10:27:08;;;;;;;;;;;24.90;39.80;;;;;;8300172;28;19953;-48
2022/05/16 10:35:34;;;;;;;;;;;24.90;39.80;;;;;;8303926;28;19947;-49
2022/05/16 10:39:37;;;;;;;;;;;24.90;39.80;;;;;;8300121;28;19914;-46
2022/05/16 10:43:41;;;;;;;;;;;25.00;39.80;;;;;;8300343;28;19917;-48
2022/05/16 10:47:52;;;;;;;;;;;25.00;39.80;;;;;;8300169;28;19922;-48
2022/05/16 10:51:59;;;;;;;;;;;25.00;39.70;;;;;;8299506;28;19917;-48
2022/05/16 10:56:23;;;;;;;;;;;25.00;39.70;;;;;;8299644;28;19980;-46
2022/05/16 11:00:42;;;;;;;;;;;25.00;39.70;;;;;;8299302;28;19917;-49
2022/05/16 11:04:42;;;;;;;;;;;25.10;39.70;;;;;;8300002;28;19928;-47
2022/05/16 11:08:52;;;;;;;;;;;25.10;39.70;;;;;;8299377;28;19918;-46
2022/05/16 11:13:11;;;;;;;;;;;25.10;39.70;;;;;;8299364;28;19923;-46
2022/05/16 11:17:27;;;;;;;;;;;25.10;39.60;;;;;;8299233;28;19929;-46
2022/05/16 11:21:28;;;;;;;;;;;25.10;39.60;;;;;;8298349;28;19925;-47
2022/05/16 11:25:40;;;;;;;;;;;25.20;39.60;;;;;;8298968;28;19922;-48
2022/05/16 11:29:52;;;;;;;;;;;25.20;39.60;;;;;;8298932;28;19926;-46
2022/05/16 11:33:53;;;;;;;;;;;25.20;39.50;;;;;;8298672;28;19925;-47
2022/05/16 11:38:06;;;;;;;;;;;25.20;39.50;;;;;;8298733;28;19923;-51
2022/05/16 11:42:13;;;;;;;;;;;25.30;39.50;;;;;;8298136;28;19924;-50
2022/05/16 11:46:26;;;;;;;;;;;25.20;39.50;;;;;;8298481;28;19922;-46
2022/05/16 11:50:34;;;;;;;;;;;25.20;39.40;;;;;;8298569;28;19921;-46
2022/05/16 11:55:00;;;;;;;;;;;25.30;39.50;;;;;;8297875;28;19921;-51
2022/05/16 12:04:01;;;;;;;;;;;25.30;39.40;;;;;;8293016;28;20287;-46
2022/05/16 12:08:13;;;;;;;;;;;25.30;39.40;;;;;;8297876;28;19944;-47
2022/05/16 12:12:26;;;;;;;;;;;25.30;39.50;;;;;;8297195;28;19972;-48
2022/05/16 12:16:35;;;;;;;;;;;25.30;39.50;;;;;;8297140;28;20290;-48
2022/05/16 12:20:37;;;;;;;;;;;25.40;39.60;;;;;;8297693;28;19975;-48
2022/05/16 12:24:52;;;;;;;;;;;25.40;39.60;;;;;;8297319;28;19914;-46
2022/05/16 12:29:08;;;;;;;;;;;25.40;39.50;;;;;;8297560;28;19924;-47
2022/05/16 12:33:28;;;;;;;;;;;25.40;39.50;;;;;;8296925;28;19921;-46
2022/05/16 12:37:28;;;;;;;;;;;25.40;39.40;;;;;;8297599;28;19949;-49
2022/05/16 12:41:40;;;;;;;;;;;25.50;39.50;;;;;;8297274;28;19933;-48
2022/05/16 12:45:49;;;;;;;;;;;25.50;39.50;;;;;;8296865;28;19948;-46
2022/05/16 12:50:10;;;;;;;;;;;25.50;39.50;;;;;;8297705;28;19914;-48
2022/05/16 12:54:16;;;;;;;;;;;25.50;39.50;;;;;;8296143;28;19932;-46
2022/05/16 12:58:20;;;;;;;;;;;25.50;39.40;;;;;;8297244;28;19918;-46
2022/05/16 13:02:26;;;;;;;;;;;25.50;39.40;;;;;;8296914;28;19929;-47
2022/05/16 13:06:44;;;;;;;;;;;25.50;39.40;;;;;;8296512;28;19918;-48
2022/05/16 13:10:53;;;;;;;;;;;25.60;39.50;;;;;;8281560;28;19953;-45
2022/05/16 13:14:59;;;;;;;;;;;25.60;39.40;;;;;;8264057;28;20005;-46
2022/05/16 13:19:11;;;;;;;;;;;25.60;39.40;;;;;;8273999;28;19925;-48
2022/05/16 13:23:14;;;;;;;;;;;25.60;39.40;;;;;;8296671;28;19922;-46
2022/05/16 13:31:44;;;;;;;;;;;25.60;39.50;;;;;;8308685;28;19924;-46
2022/05/16 13:35:44;;;;;;;;;;;25.50;39.50;;;;;;8302452;28;19957;-46
2022/05/16 13:39:46;;;;;;;;;;;25.60;39.50;;;;;;8301665;28;19973;-47
2022/05/16 13:43:48;;;;;;;;;;;25.60;39.50;;;;;;8302113;28;20295;-46
2022/05/16 13:47:48;;;;;;;;;;;25.60;39.50;;;;;;8301587;28;20357;-49
2022/05/16 13:51:50;;;;;;;;;;;25.60;39.50;;;;;;8301790;28;20012;-46
2022/05/16 13:55:51;;;;;;;;;;;25.60;39.50;;;;;;8302048;28;19930;-47
2022/05/16 14:00:12;;;;;;;;;;;25.70;39.60;;;;;;8301175;28;19929;-49
2022/05/16 14:04:14;;;;;;;;;;;25.60;39.50;;;;;;8301456;28;19995;-46
2022/05/16 14:08:38;;;;;;;;;;;25.70;39.60;;;;;;8301450;28;20377;-46
2022/05/16 14:12:42;;;;;;;;;;;25.70;39.60;;;;;;8273453;28;19924;-50
2022/05/16 14:16:49;;;;;;;;;;;25.70;39.50;;;;;;8301232;28;19928;-48
2022/05/16 14:21:01;;;;;;;;;;;25.70;39.50;;;;;;8300906;28;19918;-48
2022/05/16 14:25:11;;;;;;;;;;;25.70;39.50;;;;;;8300791;28;19945;-47
2022/05/16 14:29:13;;;;;;;;;;;25.70;39.50;;;;;;8300545;28;19921;-47
2022/05/16 14:33:18;;;;;;;;;;;25.70;40.00;;;;;;8299834;28;19925;-47
2022/05/16 14:37:23;;;;;;;;;;;25.60;39.40;;;;;;8300121;28;20347;-46
2022/05/16 14:41:25;;;;;;;;;;;25.60;39.40;;;;;;8300587;28;19918;-48
2022/05/16 14:46:42;;;;;;;;;;;25.60;39.40;;;;;;8298092;28;19932;-48
2022/05/16 14:49:47;;;;;;;;;;;25.60;39.30;;;;;;8299569;28;19917;-47
2022/05/16 14:53:47;;;;;;;;;;;25.70;39.40;;;;;;8299668;28;19922;-46
2022/05/16 14:57:48;;;;;;;;;;;25.70;39.30;;;;;;8299394;28;20344;-47
2022/05/16 15:06:08;;;;;;;;;;;25.70;39.30;;;;;;8299230;28;20340;-47
2022/05/16 15:10:10;;;;;;;;;;;25.80;39.30;;;;;;8299581;28;19964;-50
2022/05/16 15:14:11;;;;;;;;;;;25.70;39.20;;;;;;8298860;28;19925;-50
2022/05/16 15:18:12;;;;;;;;;;;25.70;39.20;;;;;;8298500;28;19923;-48
2022/05/16 15:22:14;;;;;;;;;;;25.70;39.20;;;;;;8298929;28;20244;-46
2022/05/16 15:26:15;;;;;;;;;;;25.80;39.20;;;;;;8298926;28;19924;-47
2022/05/16 15:30:16;;;;;;;;;;;25.80;39.20;;;;;;8298143;28;19996;-47
2022/05/16 15:34:16;;;;;;;;;;;25.80;39.20;;;;;;8298371;28;20283;-49
2022/05/16 15:38:18;;;;;;;;;;;25.70;39.10;;;;;;8298459;28;19913;-50
2022/05/16 15:42:20;;;;;;;;;;;25.80;39.10;;;;;;8298047;28;19996;-47
2022/05/16 15:46:20;;;;;;;;;;;25.80;39.10;;;;;;8298733;28;19913;-46
2022/05/16 15:50:22;;;;;;;;;;;25.80;39.10;;;;;;8297546;28;19921;-50
2022/05/16 15:54:22;;;;;;;;;;;25.80;39.10;;;;;;8297591;28;19925;-49
2022/05/16 15:58:23;;;;;;;;;;;25.80;39.10;;;;;;8298252;28;19983;-48
2022/05/16 16:02:24;;;;;;;;;;;25.80;39.10;;;;;;8293392;28;19922;-46
2022/05/16 16:10:53;;;;;;;;;;;25.80;39.00;;;;;;8281341;28;19943;-48
2022/05/16 16:14:56;;;;;;;;;;;25.80;39.00;;;;;;8297193;28;20071;-47
2022/05/16 16:18:56;;;;;;;;;;;25.80;39.00;;;;;;8297367;28;20375;-47
2022/05/16 16:22:58;;;;;;;;;;;25.80;39.00;;;;;;8297677;28;19918;-47
2022/05/16 16:26:58;;;;;;;;;;;25.80;39.00;;;;;;8297302;28;19914;-46
2022/05/16 16:31:00;;;;;;;;;;;25.80;39.00;;;;;;8297688;28;19918;-47
2022/05/16 16:35:00;;;;;;;;;;;25.80;39.00;;;;;;8297116;28;19936;-47
2022/05/16 16:39:01;;;;;;;;;;;25.80;39.00;;;;;;8296604;28;19922;-47
2022/05/16 16:43:02;;;;;;;;;;;25.80;39.00;;;;;;8296959;28;20008;-46
2022/05/16 16:47:03;;;;;;;;;;;25.80;39.00;;;;;;8297087;28;20393;-47
2022/05/16 17:00:07;;;;;;;;;;;25.80;38.90;;;;;;8298326;28;19964;-47
2022/05/16 17:04:09;;;;;;;;;;;25.80;39.00;;;;;;8303206;28;20001;-49
2022/05/16 17:08:13;;;;;;;;;;;25.80;39.00;;;;;;8303026;28;19913;-47
2022/05/16 17:12:13;;;;;;;;;;;25.80;39.00;;;;;;8302668;28;20279;-51
2022/05/16 17:16:14;;;;;;;;;;;25.80;39.00;;;;;;8302136;28;19956;-48
2022/05/16 17:20:15;;;;;;;;;;;25.80;39.00;;;;;;8300977;28;19917;-47
2022/05/16 17:24:15;;;;;;;;;;;25.80;39.00;;;;;;8302188;28;19917;-48
2022/05/16 17:28:16;;;;;;;;;;;25.80;39.00;;;;;;8302616;28;19917;-47
2022/05/16 17:32:17;;;;;;;;;;;25.80;39.00;;;;;;8302676;28;19914;-48
2022/05/16 17:36:18;;;;;;;;;;;25.80;39.00;;;;;;8301595;28;19930;-49
2022/05/16 17:40:19;;;;;;;;;;;25.80;39.00;;;;;;8301900;28;20294;-47
2022/05/16 17:44:20;;;;;;;;;;;25.80;39.00;;;;;;8301255;28;19918;-49
2022/05/16 17:48:20;;;;;;;;;;;25.80;39.10;;;;;;8300863;28;19976;-51
2022/05/16 17:52:21;;;;;;;;;;;25.80;39.00;;;;;;8301631;28;20042;-47
2022/05/16 17:56:22;;;;;;;;;;;25.80;39.00;;;;;;8303291;28;20393;-47
2022/05/16 18:00:22;;;;;;;;;;;25.80;39.10;;;;;;8300407;28;19918;-47
2022/05/16 18:04:23;;;;;;;;;;;25.80;39.10;;;;;;8299920;28;20020;-49
2022/05/16 18:08:23;;;;;;;;;;;25.70;39.00;;;;;;8300430;28;19972;-48
2022/05/16 18:12:42;;;;;;;;;;;25.70;39.00;;;;;;8299412;28;20432;-51
2022/05/16 18:16:43;;;;;;;;;;;25.70;39.10;;;;;;8300690;28;19929;-50
2022/05/16 18:20:43;;;;;;;;;;;25.70;39.00;;;;;;8300791;28;19960;-47
2022/05/16 18:24:44;;;;;;;;;;;25.70;39.60;;;;;;8300115;28;19917;-47
2022/05/16 18:28:45;;;;;;;;;;;25.70;39.10;;;;;;8300603;28;19913;-47
2022/05/16 18:32:46;;;;;;;;;;;25.70;39.10;;;;;;8300891;28;19993;-47
2022/05/16 18:36:48;;;;;;;;;;;25.70;39.10;;;;;;8299872;28;20023;-49
2022/05/16 18:40:56;;;;;;;;;;;25.70;39.10;;;;;;8300419;28;20040;-47
2022/05/16 18:53:36;;;;;;;;;;;25.70;39.20;;;;;;8302703;28;20001;-48
2022/05/16 18:57:38;;;;;;;;;;;25.70;39.20;;;;;;8298892;28;19913;-46
2022/05/16 19:01:39;;;;;;;;;;;25.70;39.20;;;;;;8298955;28;19922;-50
2022/05/16 19:05:40;;;;;;;;;;;25.60;39.20;;;;;;8298262;28;19928;-47
2022/05/16 19:09:41;;;;;;;;;;;25.60;39.20;;;;;;8298221;28;20424;-49
2022/05/16 19:13:41;;;;;;;;;;;25.60;39.20;;;;;;8298296;28;19925;-47
2022/05/16 19:17:42;;;;;;;;;;;25.60;39.30;;;;;;8298998;28;20000;-48
2022/05/16 19:21:43;;;;;;;;;;;25.60;39.30;;;;;;8297894;28;20000;-47
2022/05/16 19:25:47;;;;;;;;;;;25.60;39.30;;;;;;8298023;28;19940;-47
2022/05/16 19:34:07;;;;;;;;;;;25.60;39.30;;;;;;8298188;28;19933;-47
2022/05/16 19:38:07;;;;;;;;;;;25.60;39.30;;;;;;8298881;28;19949;-46
2022/05/16 19:42:13;;;;;;;;;;;25.60;39.30;;;;;;8298180;28;19960;-48
2022/05/16 19:46:14;;;;;;;;;;;25.60;39.30;;;;;;8298424;28;19924;-50
2022/05/16 19:50:14;;;;;;;;;;;25.60;39.30;;;;;;8298634;28;20263;-51
2022/05/16 19:54:15;;;;;;;;;;;25.60;39.30;;;;;;8297855;28;19980;-49
2022/05/16 19:58:17;;;;;;;;;;;25.60;39.30;;;;;;8298580;28;20406;-49
2022/05/16 20:02:18;;;;;;;;;;;25.60;39.30;;;;;;8298101;28;19921;-46
2022/05/16 20:06:18;;;;;;;;;;;25.50;39.30;;;;;;8297694;28;19917;-48
2022/05/16 20:10:20;;;;;;;;;;;25.50;39.20;;;;;;8298297;28;19964;-46
2022/05/16 20:14:21;;;;;;;;;;;25.50;39.30;;;;;;8297891;28;20387;-48
2022/05/16 20:18:22;;;;;;;;;;;25.50;39.30;;;;;;8297724;28;19968;-49
2022/05/16 20:26:41;;;;;;;;;;;25.50;39.30;;;;;;8297807;28;19928;-47
2022/05/16 20:30:42;;;;;;;;;;;25.50;39.30;;;;;;8297283;28;19921;-49
2022/05/16 20:34:43;;;;;;;;;;;25.50;39.30;;;;;;8298719;28;19971;-49
2022/05/16 20:38:44;;;;;;;;;;;25.50;39.30;;;;;;8304504;28;19914;-51
2022/05/16 20:42:48;;;;;;;;;;;25.50;39.30;;;;;;8303548;28;20055;-45
2022/05/16 20:46:49;;;;;;;;;;;25.40;39.30;;;;;;8304210;28;19932;-47
2022/05/16 20:50:49;;;;;;;;;;;25.40;39.30;;;;;;8303492;28;19918;-48
2022/05/16 20:54:50;;;;;;;;;;;25.40;39.30;;;;;;8303863;28;19980;-49
2022/05/16 20:58:50;;;;;;;;;;;25.40;39.40;;;;;;8303314;28;19913;-45
2022/05/16 21:02:51;;;;;;;;;;;25.40;39.30;;;;;;8303257;28;19928;-49
2022/05/16 21:06:52;;;;;;;;;;;25.40;39.30;;;;;;8303299;28;19929;-46
2022/05/16 21:10:52;;;;;;;;;;;25.40;39.30;;;;;;8303241;28;19917;-45
2022/05/16 21:14:53;;;;;;;;;;;25.40;39.30;;;;;;8302702;28;19929;-45
2022/05/16 21:18:53;;;;;;;;;;;25.40;39.40;;;;;;8303143;28;19913;-46
2022/05/16 21:22:54;;;;;;;;;;;25.40;39.40;;;;;;8302732;28;19918;-47
2022/05/16 21:26:54;;;;;;;;;;;25.40;39.40;;;;;;8302251;28;19941;-50
2022/05/16 21:30:55;;;;;;;;;;;25.30;39.30;;;;;;8302619;28;19921;-50
2022/05/16 21:34:56;;;;;;;;;;;25.40;39.40;;;;;;8302542;28;19947;-46
2022/05/16 21:38:56;;;;;;;;;;;25.40;39.40;;;;;;8302005;28;19914;-45
2022/05/16 21:42:57;;;;;;;;;;;25.40;39.40;;;;;;8302172;28;19971;-45
2022/05/16 21:46:57;;;;;;;;;;;25.30;39.30;;;;;;8300848;28;20322;-47
2022/05/16 21:50:58;;;;;;;;;;;25.30;39.30;;;;;;8301510;28;20013;-49
2022/05/16 21:54:58;;;;;;;;;;;25.30;39.30;;;;;;8301978;28;19971;-46
2022/05/16 21:58:59;;;;;;;;;;;25.30;39.40;;;;;;8301881;28;20389;-47
2022/05/16 22:03:00;;;;;;;;;;;25.20;39.30;;;;;;8300714;28;20005;-47
2022/05/16 22:07:00;;;;;;;;;;;25.30;39.40;;;;;;8301586;28;20366;-49
2022/05/16 22:11:01;;;;;;;;;;;25.30;39.40;;;;;;8282482;28;20141;-48
2022/05/16 22:15:01;;;;;;;;;;;25.20;39.40;;;;;;8294368;28;20031;-46
2022/05/16 22:19:03;;;;;;;;;;;25.20;39.40;;;;;;8301521;28;19963;-48
2022/05/16 22:23:04;;;;;;;;;;;25.20;39.40;;;;;;8300881;28;19917;-46
2022/05/16 22:27:04;;;;;;;;;;;25.20;39.40;;;;;;8300398;28;19924;-45
2022/05/16 22:31:05;;;;;;;;;;;25.20;39.40;;;;;;8301088;28;20013;-47
2022/05/16 22:35:07;;;;;;;;;;;25.20;39.40;;;;;;8300719;28;19926;-45
2022/05/16 22:39:07;;;;;;;;;;;25.20;39.40;;;;;;8300313;28;20051;-47
2022/05/16 22:43:08;;;;;;;;;;;25.20;39.40;;;;;;8300382;28;20276;-47
2022/05/16 22:47:08;;;;;;;;;;;25.20;39.50;;;;;;8300400;28;20387;-46
2022/05/16 22:51:09;;;;;;;;;;;25.20;39.50;;;;;;8299724;28;19923;-50
2022/05/16 22:55:09;;;;;;;;;;;25.20;39.50;;;;;;8300053;28;19925;-47
2022/05/16 22:59:10;;;;;;;;;;;25.20;39.50;;;;;;8300119;28;19914;-46
2022/05/16 23:03:30;;;;;;;;;;;25.10;39.40;;;;;;8299766;28;19960;-47
2022/05/16 23:07:34;;;;;;;;;;;25.20;39.50;;;;;;8300057;28;19918;-47
2022/05/16 23:11:36;;;;;;;;;;;25.10;39.40;;;;;;8299586;28;20382;-47
2022/05/16 23:15:37;;;;;;;;;;;25.10;39.40;;;;;;8299107;28;19961;-45
2022/05/16 23:19:38;;;;;;;;;;;25.10;39.40;;;;;;8299672;28;19913;-46
2022/05/16 23:23:38;;;;;;;;;;;25.10;39.40;;;;;;8299124;28;20366;-47
2022/05/16 23:27:39;;;;;;;;;;;25.10;39.50;;;;;;8298655;28;19918;-45
2022/05/16 23:31:39;;;;;;;;;;;25.10;39.40;;;;;;8299514;28;19929;-46
2022/05/16 23:36:12;;;;;;;;;;;25.10;39.40;;;;;;8298942;28;20388;-46
2022/05/16 23:40:00;;;;;;;;;;;25.00;39.40;;;;;;8298713;28;19964;-45
2022/05/16 23:44:01;;;;;;;;;;;25.00;39.40;;;;;;8298532;28;19922;-47
2022/05/16 23:48:01;;;;;;;;;;;25.00;39.40;;;;;;8297674;28;20398;-45
2022/05/16 23:52:02;;;;;;;;;;;25.00;39.40;;;;;;8298717;28;20020;-46
2022/05/16 23:56:03;;;;;;;;;;;25.00;39.50;;;;;;8298289;28;20020;-46
